Time;durP1;ratioP1;P1;durP2;ratioP2;P2;SDS_P1;SDS_P2;PMS_P1;PMS_P2;Temp;Humidity;BMP_temperature;BMP_pressure;BME280_temperature;BME280_humidity;BME280_pressure;Samples;Min_cycle;Max_cycle;Signal;HPM_P1;HPM_P2
2023/12/08 00:01:16;;;;;;;8.90;4.68;;;4.40;99.90;;;4.41;59.38;99841.09;5076283;28;20123;-84
2023/12/08 00:03:44;;;;;;;7.88;5.05;;;4.40;99.90;;;4.44;61.53;99821.41;5059789;28;20419;-84
2023/12/08 00:06:12;;;;;;;9.88;4.95;;;4.40;99.90;;;4.47;60.84;99811.28;5078219;28;20121;-83
2023/12/08 00:08:40;;;;;;;10.50;5.05;;;4.40;99.90;;;4.45;59.55;99804.56;5077973;28;20135;-83
2023/12/08 00:11:08;;;;;;;7.95;5.10;;;4.40;99.90;;;4.48;60.38;99790.97;5059798;28;20072;-83
2023/12/08 00:13:36;;;;;;;10.43;5.28;;;4.40;99.90;;;4.49;59.45;99784.69;5078421;28;20044;-83
2023/12/08 00:16:08;;;;;;;9.63;5.60;;;4.40;99.90;;;4.51;59.58;99790.63;5078653;28;20055;-84
2023/12/08 00:18:36;;;;;;;8.55;5.18;;;4.50;99.90;;;4.52;60.27;99803.63;5026359;28;20055;-83
2023/12/08 00:21:05;;;;;;;10.43;5.60;;;4.50;99.90;;;4.57;60.93;99803.06;5077666;28;20051;-84
2023/12/08 00:23:32;;;;;;;9.32;5.13;;;4.50;99.90;;;4.59;60.32;99785.22;5097019;28;20049;-84
2023/12/08 00:26:00;;;;;;;10.70;5.22;;;4.50;99.90;;;4.56;61.48;99778.47;5081227;28;20063;-84
2023/12/08 00:28:32;;;;;;;8.70;5.43;;;4.50;99.90;;;4.55;60.18;99779.50;5079827;28;20037;-83
2023/12/08 00:30:59;;;;;;;11.80;6.07;;;4.50;99.90;;;4.58;61.58;99783.56;5079925;28;20139;-84
2023/12/08 00:33:28;;;;;;;15.75;5.93;;;4.50;99.90;;;4.57;61.21;99780.09;5079819;28;20066;-83
2023/12/08 00:35:56;;;;;;;9.55;5.97;;;4.50;99.90;;;4.61;62.48;99778.72;5079809;28;20052;-84
2023/12/08 00:38:23;;;;;;;9.85;5.78;;;4.50;99.90;;;4.59;61.16;99774.66;5081326;28;20407;-83
2023/12/08 00:40:52;;;;;;;9.77;5.60;;;4.50;99.90;;;4.61;62.54;99765.53;5079287;28;20048;-84
2023/12/08 00:43:19;;;;;;;11.25;5.80;;;4.60;99.90;;;4.39;60.37;99763.88;5079694;28;20515;-84
2023/12/08 00:45:47;;;;;;;10.70;5.72;;;4.40;99.90;;;4.36;61.25;99767.72;5081453;28;20033;-84
2023/12/08 00:48:15;;;;;;;9.57;5.65;;;4.40;99.90;;;4.45;63.20;99773.72;5064170;28;20048;-84
2023/12/08 00:50:44;;;;;;;10.30;5.78;;;4.40;99.90;;;4.43;62.00;99757.22;5063169;28;20143;-84
2023/12/08 00:53:11;;;;;;;9.93;5.80;;;4.40;99.90;;;4.42;62.70;99752.97;5078792;28;20037;-83
2023/12/08 00:55:39;;;;;;;11.25;6.40;;;4.40;99.90;;;4.43;61.94;99749.31;5080334;28;20098;-83
2023/12/08 00:58:06;;;;;;;11.10;6.30;;;4.40;99.90;;;4.44;62.85;99735.13;5062977;28;20037;-84
2023/12/08 01:00:34;;;;;;;10.45;6.35;;;4.40;99.90;;;4.46;62.71;99740.22;5080305;28;20068;-84
2023/12/08 01:03:04;;;;;;;10.32;5.95;;;4.40;99.90;;;4.44;62.79;99740.41;5080386;28;20045;-84
2023/12/08 01:05:32;;;;;;;12.43;6.60;;;4.40;99.90;;;4.45;62.38;99723.56;5063831;28;20037;-84
2023/12/08 01:08:00;;;;;;;12.10;6.40;;;4.40;99.90;;;4.50;62.83;99730.91;5062146;28;20301;-84
2023/12/08 01:10:28;;;;;;;13.15;6.70;;;4.40;99.90;;;4.47;62.41;99720.72;5079166;28;20071;-84
2023/12/08 01:12:55;;;;;;;11.35;6.78;;;4.40;99.90;;;4.47;61.89;99734.72;5078421;28;20051;-84
2023/12/08 01:15:23;;;;;;;11.25;6.35;;;4.40;99.90;;;4.43;62.26;99730.00;5080380;28;20441;-84
2023/12/08 01:17:50;;;;;;;11.68;7.13;;;4.40;99.90;;;4.45;61.36;99722.75;5078640;28;20503;-83
2023/12/08 01:20:18;;;;;;;12.23;6.47;;;4.40;99.90;;;4.46;62.03;99727.81;5080829;28;20076;-83
2023/12/08 01:22:45;;;;;;;11.43;6.38;;;4.40;99.90;;;4.47;61.52;99728.63;5079976;28;20596;-83
2023/12/08 01:25:15;;;;;;;11.13;6.78;;;4.40;99.90;;;4.48;61.66;99715.22;5080517;28;20044;-84
2023/12/08 01:27:42;;;;;;;10.93;6.78;;;4.40;99.90;;;4.44;60.15;99727.19;5080743;28;20041;-84
2023/12/08 01:30:11;;;;;;;11.32;6.60;;;4.40;99.90;;;4.47;60.90;99726.81;5078689;28;20060;-84
2023/12/08 01:32:38;;;;;;;12.35;6.38;;;4.40;99.90;;;4.43;59.53;99725.53;5077321;28;20466;-84
2023/12/08 01:35:06;;;;;;;11.95;7.15;;;4.50;99.90;;;4.42;61.49;99745.03;5079842;28;20076;-84
2023/12/08 01:37:34;;;;;;;12.13;7.30;;;4.40;99.90;;;4.39;60.84;99734.84;5078612;28;20068;-84
2023/12/08 01:40:01;;;;;;;13.02;7.30;;;4.40;99.90;;;4.38;59.91;99723.47;5078619;28;20047;-85
2023/12/08 01:42:30;;;;;;;13.02;7.18;;;4.60;99.90;;;4.31;59.74;99722.59;5077822;28;20519;-83
2023/12/08 01:44:58;;;;;;;11.73;6.72;;;4.40;99.90;;;4.38;60.60;99710.28;5078967;28;20094;-84
2023/12/08 01:47:25;;;;;;;13.98;7.80;;;4.40;99.90;;;4.36;59.96;99709.66;5045209;28;20098;-84
2023/12/08 01:49:53;;;;;;;13.05;7.15;;;4.40;99.90;;;4.40;61.54;99747.06;5077921;28;20513;-84
2023/12/08 01:52:24;;;;;;;12.02;7.10;;;4.40;99.90;;;4.42;61.55;99739.75;5079814;28;20044;-84
2023/12/08 01:54:58;;;;;;;11.35;6.55;;;4.50;99.90;;;4.42;61.05;99729.19;5078436;28;20045;-84
2023/12/08 01:57:26;;;;;;;12.10;7.18;;;4.40;99.90;;;4.43;59.91;99728.19;5077957;28;20055;-84
2023/12/08 01:59:56;;;;;;;15.25;7.95;;;4.40;99.90;;;4.45;61.94;99723.56;5079460;28;20036;-83
2023/12/08 02:02:24;;;;;;;13.15;7.85;;;4.50;99.90;;;4.45;61.61;99723.56;5078461;28;20040;-84
2023/12/08 02:04:57;;;;;;;13.88;7.63;;;4.40;99.90;;;4.49;61.87;99718.69;5079268;28;20407;-84
2023/12/08 02:07:25;;;;;;;14.10;7.65;;;4.50;99.90;;;4.50;62.04;99717.69;5079833;28;20102;-84
2023/12/08 02:09:53;;;;;;;12.77;7.65;;;4.50;99.90;;;4.53;62.38;99710.19;5078366;28;20044;-83
2023/12/08 02:12:21;;;;;;;11.90;7.53;;;4.50;99.90;;;4.48;60.86;99711.78;5040353;28;20539;-84
2023/12/08 02:14:52;;;;;;;14.00;7.75;;;4.50;99.90;;;4.52;61.99;99719.13;5024046;28;20060;-83
2023/12/08 02:17:24;;;;;;;;;;;4.50;99.90;;;4.56;62.00;99715.09;5057476;28;20539;-84
2023/12/08 02:19:52;;;;;;;12.10;7.57;;;4.50;99.90;;;4.54;61.67;99711.84;5056844;28;19958;-84
2023/12/08 02:22:22;;;;;;;13.10;7.68;;;4.50;99.90;;;4.59;62.37;99706.00;5057210;28;20092;-83
2023/12/08 02:24:52;;;;;;;13.93;7.93;;;4.50;99.90;;;4.62;63.14;99701.13;5057082;28;20095;-83
2023/12/08 02:27:20;;;;;;;14.05;7.82;;;4.50;99.90;;;4.65;62.11;99697.31;5057616;28;20053;-84
2023/12/08 02:29:47;;;;;;;13.23;7.15;;;4.60;99.90;;;4.68;63.02;99699.53;5063724;28;20050;-84
2023/12/08 02:32:24;;;;;;;12.27;6.88;;;4.60;99.90;;;4.67;62.14;99692.63;5076266;28;20040;-84
2023/12/08 02:34:54;;;;;;;15.07;8.07;;;4.50;99.90;;;4.69;62.92;99693.28;5059922;28;20068;-83
2023/12/08 02:37:22;;;;;;;11.88;7.25;;;4.60;99.90;;;4.71;63.32;99688.59;5059077;28;20044;-84
2023/12/08 02:39:53;;;;;;;11.73;7.10;;;4.60;99.90;;;4.75;63.27;99668.72;5059411;28;20542;-84
2023/12/08 02:42:20;;;;;;;14.00;8.10;;;4.60;99.90;;;4.78;63.31;99686.00;5077005;28;20106;-83
2023/12/08 02:44:48;;;;;;;12.50;7.35;;;4.60;99.90;;;4.79;63.46;99682.38;5044457;28;20526;-83
2023/12/08 02:47:16;;;;;;;12.20;7.25;;;4.60;99.90;;;4.79;63.59;99683.19;5077368;28;20071;-84
2023/12/08 02:49:43;;;;;;;12.68;7.22;;;4.60;99.90;;;4.77;63.07;99673.81;5079931;28;20411;-84
2023/12/08 02:52:10;;;;;;;13.77;8.10;;;4.60;99.90;;;4.73;62.19;99675.19;5078304;28;20048;-84
2023/12/08 02:54:37;;;;;;;13.77;7.80;;;4.60;99.90;;;4.72;62.93;99679.66;5076698;28;20056;-84
2023/12/08 02:57:06;;;;;;;14.52;8.20;;;4.60;99.90;;;4.75;63.95;99678.47;5079541;28;20127;-83
2023/12/08 02:59:34;;;;;;;14.43;8.05;;;4.60;99.90;;;4.75;63.99;99686.41;5077499;28;20510;-83
2023/12/08 03:02:02;;;;;;;12.23;7.25;;;4.60;99.90;;;4.72;64.00;99674.38;5076604;28;20053;-84
2023/12/08 03:04:29;;;;;;;14.90;8.20;;;4.60;99.90;;;4.63;63.86;99662.34;5043141;28;20044;-84
2023/12/08 03:06:56;;;;;;;13.00;8.23;;;4.60;99.90;;;4.62;64.88;99663.34;5060677;28;20194;-83
2023/12/08 03:09:24;;;;;;;13.50;7.82;;;4.50;99.90;;;4.62;66.00;99656.25;5079729;28;20049;-84
2023/12/08 03:11:52;;;;;;;13.20;7.97;;;4.50;99.90;;;4.65;65.92;99647.94;5079901;28;20052;-83
2023/12/08 03:14:21;;;;;;;14.13;8.13;;;4.50;99.90;;;4.69;66.36;99639.66;5059726;28;20052;-84
2023/12/08 03:16:49;;;;;;;14.25;8.48;;;4.50;99.90;;;4.70;66.75;99630.72;5078306;28;20113;-83
2023/12/08 03:19:17;;;;;;;16.30;8.73;;;4.50;99.90;;;4.69;66.84;99634.38;5063471;28;20041;-84
2023/12/08 03:21:45;;;;;;;13.60;8.82;;;4.60;99.90;;;4.71;67.59;99629.69;5058386;28;20473;-83
2023/12/08 03:24:12;;;;;;;13.32;8.30;;;4.50;99.90;;;4.72;68.38;99628.69;5058847;28;20045;-83
2023/12/08 03:26:40;;;;;;;13.65;8.15;;;4.50;99.90;;;4.69;68.13;99621.97;5057082;28;20113;-83
2023/12/08 03:29:07;;;;;;;16.33;9.07;;;4.50;99.90;;;4.69;68.31;99621.97;5058384;28;20136;-83
2023/12/08 03:31:37;;;;;;;13.43;8.77;;;4.50;99.90;;;4.67;68.84;99613.41;5058708;28;20033;-83
2023/12/08 03:34:04;;;;;;;18.35;9.32;;;4.50;99.90;;;4.62;69.01;99619.28;5059243;28;20070;-83
2023/12/08 03:36:32;;;;;;;15.20;8.88;;;4.40;99.90;;;4.59;69.46;99613.59;5057910;28;20098;-84
2023/12/08 03:38:59;;;;;;;15.63;9.10;;;4.40;99.90;;;4.60;69.45;99613.38;5024698;28;20048;-83
2023/12/08 03:41:27;;;;;;;15.25;9.35;;;4.40;99.90;;;4.51;69.07;99601.34;5040345;28;20072;-84
2023/12/08 03:43:54;;;;;;;15.82;9.07;;;4.30;99.90;;;4.54;69.79;99600.97;5056596;28;20047;-84
2023/12/08 03:46:21;;;;;;;15.43;9.23;;;4.40;99.90;;;4.54;69.92;99594.84;5081786;28;20066;-84
2023/12/08 03:48:52;;;;;;;18.23;8.90;;;4.40;99.90;;;4.40;69.45;99583.41;5078183;28;20055;-84
2023/12/08 03:51:19;;;;;;;17.05;9.13;;;4.30;99.90;;;4.42;70.64;99573.44;5077089;28;20045;-83
2023/12/08 03:53:47;;;;;;;17.40;8.73;;;4.30;99.90;;;4.45;70.70;99582.81;5076905;28;20578;-84
2023/12/08 03:56:14;;;;;;;16.02;9.68;;;4.30;99.90;;;4.44;70.74;99570.59;5077295;28;20055;-84
2023/12/08 03:58:42;;;;;;;16.65;9.93;;;4.30;99.90;;;4.39;71.38;99582.59;5081111;28;20083;-84
2023/12/08 04:01:09;;;;;;;15.90;9.55;;;4.20;99.90;;;4.29;71.30;99590.00;5081749;28;20040;-84
2023/12/08 04:03:39;;;;;;;16.48;9.57;;;4.20;99.90;;;4.19;71.18;99599.25;5080118;28;20056;-84
2023/12/08 04:06:09;;;;;;;16.83;9.60;;;4.20;99.90;;;4.27;71.35;99599.94;5082831;28;20191;-84
2023/12/08 04:08:36;;;;;;;16.30;9.52;;;4.10;99.90;;;4.37;71.62;99602.25;5063600;28;20422;-84
2023/12/08 04:11:04;;;;;;;16.60;9.55;;;4.20;99.90;;;4.41;71.86;99606.13;5081718;28;20048;-84
2023/12/08 04:13:33;;;;;;;15.80;9.43;;;4.20;99.90;;;4.41;71.38;99600.03;5059659;28;20052;-84
2023/12/08 04:16:01;;;;;;;16.42;9.50;;;4.30;99.90;;;4.44;71.36;99603.13;5043439;28;20128;-84
2023/12/08 04:18:28;;;;;;;18.70;10.40;;;4.30;99.90;;;4.48;71.87;99593.78;5061653;28;20040;-84
2023/12/08 04:20:56;;;;;;;19.35;10.13;;;4.30;99.90;;;4.49;71.98;99591.97;5059882;28;20048;-84
2023/12/08 04:23:25;;;;;;;16.10;9.13;;;4.30;99.90;;;4.52;71.43;99578.38;5059999;28;20403;-84
2023/12/08 04:25:52;;;;;;;18.52;9.88;;;4.30;99.90;;;4.54;71.24;99582.47;5061252;28;20053;-84
2023/12/08 04:28:20;;;;;;;15.63;9.98;;;4.30;99.90;;;4.55;71.11;99570.09;5061413;28;20075;-84
2023/12/08 04:30:48;;;;;;;17.48;9.65;;;4.50;99.90;;;4.56;71.11;99572.53;5042864;28;20041;-84
2023/12/08 04:33:15;;;;;;;14.43;9.05;;;4.40;99.90;;;4.57;71.17;99582.06;5061084;28;20071;-84
2023/12/08 04:35:43;;;;;;;17.63;9.50;;;4.50;99.90;;;4.59;70.88;99576.63;5059570;28;20512;-84
2023/12/08 04:38:10;;;;;;;14.13;9.20;;;4.40;99.90;;;4.56;69.75;99577.81;5075931;28;20064;-84
2023/12/08 04:40:39;;;;;;;14.65;8.95;;;4.40;99.90;;;4.59;70.66;99571.34;5069864;28;20044;-84
2023/12/08 04:43:06;;;;;;;17.77;9.77;;;4.40;99.90;;;4.57;69.08;99573.34;5080220;28;20510;-84
2023/12/08 04:45:33;;;;;;;18.10;9.80;;;4.40;99.90;;;4.56;70.34;99572.53;5028733;28;20465;-84
2023/12/08 04:48:01;;;;;;;15.63;9.10;;;4.40;99.90;;;4.61;70.68;99583.31;5096069;28;20041;-84
2023/12/08 04:50:28;;;;;;;14.25;9.02;;;4.40;99.90;;;4.62;70.78;99597.34;5062227;28;20036;-84
2023/12/08 04:52:56;;;;;;;14.95;8.93;;;4.40;99.90;;;4.58;70.30;99591.63;5079837;28;20044;-84
2023/12/08 04:55:24;;;;;;;17.73;9.95;;;4.40;99.90;;;4.62;70.69;99592.88;5078394;28;20079;-84
2023/12/08 04:57:53;;;;;;;18.88;9.85;;;4.40;99.90;;;4.53;69.68;99599.31;5080513;28;20388;-84
2023/12/08 05:00:21;;;;;;;16.98;9.88;;;4.40;99.90;;;4.55;70.65;99597.31;5080478;28;20127;-84
2023/12/08 05:02:49;;;;;;;18.48;10.43;;;4.40;99.90;;;4.58;71.24;99591.63;5081511;28;20049;-84
2023/12/08 05:05:17;;;;;;;15.00;9.68;;;4.40;99.90;;;4.58;71.72;99593.44;5080171;28;20111;-84
2023/12/08 05:07:45;;;;;;;16.52;10.15;;;4.40;99.90;;;4.57;72.35;99603.19;5082213;28;20487;-84
2023/12/08 05:10:13;;;;;;;17.20;9.80;;;4.30;99.90;;;4.57;71.86;99616.41;5080721;28;20513;-84
2023/12/08 05:12:41;;;;;;;18.42;10.27;;;4.40;99.90;;;4.57;71.94;99605.03;5079412;28;20053;-84
2023/12/08 05:15:11;;;;;;;17.55;10.48;;;4.40;99.90;;;4.59;72.12;99609.13;5080768;28;20115;-84
2023/12/08 05:17:38;;;;;;;17.25;9.90;;;4.40;99.90;;;4.52;72.18;99617.97;5080960;28;20049;-84
2023/12/08 05:20:10;;;;;;;18.48;10.95;;;4.40;99.90;;;4.22;73.19;99622.63;5079058;28;20049;-84
2023/12/08 05:22:40;;;;;;;19.55;10.95;;;4.20;99.90;;;4.16;74.07;99618.13;5080281;28;20040;-84
2023/12/08 05:25:09;;;;;;;18.73;11.02;;;4.20;99.90;;;4.22;74.42;99607.63;5079294;28;20054;-84
2023/12/08 05:27:40;;;;;;;17.75;10.73;;;4.20;99.90;;;4.27;74.69;99601.78;5079880;28;20059;-84
2023/12/08 05:30:13;;;;;;;19.55;10.77;;;4.20;99.90;;;4.26;74.48;99592.22;5062721;28;20053;-84
2023/12/08 05:32:41;;;;;;;19.25;10.82;;;4.20;99.90;;;4.29;74.60;99587.34;5080840;28;20048;-84
2023/12/08 05:35:09;;;;;;;17.88;11.00;;;4.20;99.90;;;4.30;74.81;99577.66;5079265;28;20050;-84
2023/12/08 05:37:38;;;;;;;19.05;11.48;;;4.20;99.90;;;4.32;74.60;99581.72;5081609;28;20052;-84
2023/12/08 05:40:08;;;;;;;18.38;11.18;;;4.20;99.90;;;4.36;74.60;99592.69;5081252;28;20052;-83
2023/12/08 05:42:35;;;;;;;19.02;11.20;;;4.30;99.90;;;4.25;74.26;99598.53;5079225;28;20048;-84
2023/12/08 05:45:03;;;;;;;20.42;11.88;;;4.20;99.90;;;4.18;74.40;99611.66;5080765;28;20106;-84
2023/12/08 05:47:32;;;;;;;20.75;12.40;;;4.20;99.90;;;4.05;74.43;99607.09;5095196;28;20079;-84
2023/12/08 05:50:01;;;;;;;18.25;12.07;;;4.20;99.90;;;4.16;74.78;99603.13;5079796;28;20050;-84
2023/12/08 05:52:28;;;;;;;18.83;11.35;;;4.10;99.90;;;4.10;74.83;99604.69;5079499;28;20063;-84
2023/12/08 05:54:55;;;;;;;21.85;12.70;;;4.10;99.90;;;4.06;74.45;99615.81;5062397;28;20491;-84
2023/12/08 05:57:23;;;;;;;23.10;12.50;;;4.10;99.90;;;4.12;74.79;99629.06;5078304;28;20048;-84
2023/12/08 05:59:51;;;;;;;18.90;12.30;;;4.10;99.90;;;4.16;74.79;99633.97;5079494;28;20041;-84
2023/12/08 06:02:19;;;;;;;20.85;11.60;;;4.10;99.90;;;4.05;74.47;99622.06;5079666;28;20048;-84
2023/12/08 06:04:48;;;;;;;19.73;12.05;;;4.10;99.90;;;3.91;75.10;99621.16;5078207;28;20111;-84
2023/12/08 06:07:16;;;;;;;22.17;12.48;;;4.10;99.90;;;3.98;75.52;99621.22;5077238;28;20049;-84
2023/12/08 06:09:44;;;;;;;21.10;12.93;;;4.10;99.90;;;4.11;75.31;99622.16;5078800;28;20052;-84
2023/12/08 06:12:11;;;;;;;18.25;11.25;;;4.10;99.90;;;4.14;75.24;99624.38;5077630;28;20068;-83
2023/12/08 06:14:38;;;;;;;19.92;12.27;;;4.20;99.90;;;4.13;75.46;99619.31;5062056;28;20055;-82
2023/12/08 06:17:06;;;;;;;21.52;12.38;;;4.10;99.90;;;4.23;75.44;99629.53;5078046;28;20116;-83
2023/12/08 06:19:35;;;;;;;22.63;13.07;;;4.20;99.90;;;4.21;75.04;99611.28;5082323;28;20108;-83
2023/12/08 06:22:04;;;;;;;23.38;13.68;;;4.20;99.90;;;4.19;75.15;99621.19;5082103;28;20051;-83
2023/12/08 06:24:35;;;;;;;23.45;14.20;;;4.20;99.90;;;4.21;75.36;99613.91;5078813;28;20127;-86
2023/12/08 06:27:03;;;;;;;23.63;13.60;;;4.20;99.90;;;4.29;75.51;99607.66;5077863;28;20052;-86
2023/12/08 06:29:33;;;;;;;22.70;13.10;;;4.20;99.90;;;4.32;74.89;99607.28;5080737;28;20036;-84
2023/12/08 06:32:01;;;;;;;27.60;13.73;;;4.30;99.90;;;4.15;75.82;99601.50;5081658;28;20064;-84
2023/12/08 06:34:29;;;;;;;22.98;13.27;;;4.20;99.90;;;4.13;75.80;99600.84;5080482;28;20403;-84
2023/12/08 06:36:56;;;;;;;21.80;12.38;;;4.20;99.90;;;4.22;76.03;99594.44;5078428;28;20041;-84
2023/12/08 06:39:25;;;;;;;20.20;12.50;;;4.20;99.90;;;4.26;75.83;99605.41;5080329;28;20104;-84
2023/12/08 06:41:53;;;;;;;22.80;12.57;;;4.20;99.90;;;4.22;75.30;99601.53;5059788;28;20041;-85
2023/12/08 06:44:21;;;;;;;21.42;12.93;;;4.20;99.90;;;4.21;75.61;99606.00;5079323;28;20045;-84
2023/12/08 06:46:48;;;;;;;23.05;12.35;;;4.30;99.90;;;4.30;75.29;99610.13;5078219;28;20119;-84
2023/12/08 06:49:15;;;;;;;23.98;12.93;;;4.30;99.90;;;4.35;75.36;99606.91;5079735;28;20098;-84
2023/12/08 06:51:43;;;;;;;21.55;13.02;;;4.30;99.90;;;4.36;75.57;99614.63;5079720;28;20060;-84
2023/12/08 06:54:10;;;;;;;24.05;13.60;;;4.40;99.90;;;4.38;75.66;99614.44;5079087;28;20048;-84
2023/12/08 06:56:42;;;;;;;23.20;13.93;;;4.30;99.90;;;4.38;74.75;99617.06;5077321;28;20495;-85
2023/12/08 06:59:09;;;;;;;22.48;13.07;;;4.40;99.90;;;4.32;75.47;99621.31;5093857;28;20079;-85
2023/12/08 07:01:37;;;;;;;20.77;12.38;;;4.30;99.90;;;4.43;75.68;99630.50;5076681;28;20119;-85
2023/12/08 07:04:06;;;;;;;25.38;13.65;;;4.30;99.90;;;4.28;75.38;99627.97;5070995;28;20048;-85
2023/12/08 07:06:33;;;;;;;23.85;13.60;;;4.30;99.90;;;4.32;76.36;99631.03;5076181;28;20560;-85
2023/12/08 07:09:01;;;;;;;21.80;12.95;;;4.30;99.90;;;4.32;76.60;99634.50;5077900;28;20577;-85
2023/12/08 07:11:31;;;;;;;24.02;14.23;;;4.30;99.90;;;3.93;77.92;99636.78;5077244;28;20044;-85
2023/12/08 07:13:59;;;;;;;24.17;14.07;;;4.20;99.90;;;4.02;78.67;99643.59;5077213;28;20040;-85
2023/12/08 07:16:27;;;;;;;24.15;14.05;;;4.20;99.90;;;3.96;78.82;99637.25;5075790;28;20071;-85
2023/12/08 07:18:56;;;;;;;25.05;14.15;;;4.20;99.90;;;4.06;78.83;99643.00;5076096;28;20106;-85
2023/12/08 07:21:23;;;;;;;25.63;14.68;;;4.20;99.90;;;4.10;79.04;99646.09;5060709;28;20377;-84
2023/12/08 07:23:52;;;;;;;22.02;13.57;;;4.20;99.90;;;4.08;79.49;99650.72;5070837;28;20491;-84
2023/12/08 07:26:20;;;;;;;24.05;14.63;;;4.20;99.90;;;4.17;79.32;99656.69;5076108;28;20059;-84
2023/12/08 07:28:48;;;;;;;23.23;14.70;;;4.20;99.90;;;4.10;79.58;99654.00;5025562;28;20058;-85
2023/12/08 07:31:17;;;;;;;28.15;15.00;;;4.20;99.90;;;4.16;79.75;99649.78;5076262;28;20499;-85
2023/12/08 07:33:45;;;;;;;27.25;15.25;;;4.20;99.90;;;4.12;80.08;99647.53;5055983;28;20053;-85
2023/12/08 07:36:12;;;;;;;23.92;14.40;;;4.20;99.90;;;4.16;79.93;99647.97;5059401;28;20053;-85
2023/12/08 07:38:44;;;;;;;23.50;14.13;;;4.20;99.90;;;4.26;79.46;99651.09;5058429;28;20045;-85
2023/12/08 07:41:11;;;;;;;26.70;15.07;;;4.30;99.90;;;4.21;79.54;99647.41;5056734;28;20037;-85
2023/12/08 07:43:38;;;;;;;22.73;13.57;;;4.20;99.90;;;4.27;79.23;99646.63;5005548;28;20102;-85
2023/12/08 07:46:07;;;;;;;24.83;14.38;;;4.30;99.90;;;4.17;79.45;99638.22;5055168;28;20041;-85
2023/12/08 07:48:37;;;;;;;23.63;14.45;;;4.20;99.90;;;4.24;79.61;99644.38;5052704;28;20048;-84
2023/12/08 07:51:06;;;;;;;27.92;15.45;;;4.30;99.90;;;4.24;79.68;99647.00;5056747;28;20052;-85
2023/12/08 07:53:33;;;;;;;23.45;13.70;;;4.30;99.90;;;4.37;79.28;99645.28;5054052;28;20055;-85
2023/12/08 07:56:01;;;;;;;24.60;14.32;;;4.40;99.90;;;4.41;78.95;99644.94;5059631;28;20072;-85
2023/12/08 07:58:28;;;;;;;24.67;14.00;;;4.30;99.90;;;4.42;78.96;99647.38;5075771;28;20037;-85
2023/12/08 08:00:57;;;;;;;25.33;14.18;;;4.40;99.90;;;4.35;79.40;99644.69;5074858;28;20036;-85
2023/12/08 08:03:26;;;;;;;27.42;14.65;;;4.50;99.90;;;4.32;79.34;99644.25;5074323;28;20131;-85
2023/12/08 08:05:56;;;;;;;25.65;15.27;;;4.40;99.90;;;4.42;78.84;99651.81;5074572;28;20044;-85
2023/12/08 08:08:23;;;;;;;25.20;13.90;;;4.60;99.90;;;4.46;78.89;99651.25;5074958;28;20048;-85
2023/12/08 08:10:53;;;;;;;23.42;14.98;;;4.50;99.90;;;4.54;78.70;99645.84;5041735;28;20057;-86
2023/12/08 08:13:22;;;;;;;23.70;14.25;;;4.50;99.90;;;4.61;79.04;99649.34;5053965;28;20053;-86
2023/12/08 08:15:50;;;;;;;23.05;14.48;;;4.50;99.90;;;4.54;78.70;99653.75;5035114;28;20032;-85
2023/12/08 08:18:18;;;;;;;24.52;15.32;;;4.50;99.90;;;4.46;78.62;99656.53;5072776;28;20041;-85
2023/12/08 08:20:46;;;;;;;27.48;15.23;;;4.50;99.90;;;4.46;79.48;99650.44;5065666;28;20526;-85
2023/12/08 08:23:16;;;;;;;22.58;14.10;;;4.50;99.90;;;4.43;79.47;99649.00;5066864;28;20040;-85
2023/12/08 08:25:43;;;;;;;30.55;15.75;;;4.50;99.90;;;4.35;79.51;99647.31;5056566;28;20037;-85
2023/12/08 08:28:11;;;;;;;23.55;14.15;;;4.50;99.90;;;4.39;80.15;99648.56;5072633;28;20044;-85
2023/12/08 08:30:40;;;;;;;26.42;16.02;;;4.50;99.90;;;4.46;79.53;99653.91;5072747;28;20110;-85
2023/12/08 08:33:08;;;;;;;28.77;15.65;;;4.60;99.90;;;4.49;80.02;99653.53;5073017;28;20041;-85
2023/12/08 08:35:35;;;;;;;26.63;15.02;;;4.50;99.90;;;4.58;79.65;99660.28;5075216;28;20048;-85
2023/12/08 08:38:03;;;;;;;25.05;15.43;;;4.60;99.90;;;4.62;79.65;99660.72;5074766;28;20053;-85
2023/12/08 08:40:32;;;;;;;26.67;15.65;;;4.60;99.90;;;4.55;79.29;99668.59;5074065;28;20068;-85
2023/12/08 08:42:59;;;;;;;28.40;15.27;;;4.60;99.90;;;4.49;79.22;99672.00;5060549;28;20095;-85
2023/12/08 08:45:27;;;;;;;26.60;15.85;;;4.60;99.90;;;4.59;79.74;99661.94;5059074;28;20049;-85
2023/12/08 08:47:56;;;;;;;26.42;15.15;;;4.60;99.90;;;4.65;79.41;99666.44;5026554;28;20052;-85
2023/12/08 08:50:24;;;;;;;30.80;16.98;;;4.60;99.90;;;4.65;79.44;99670.91;5058793;28;20103;-85
2023/12/08 08:52:52;;;;;;;27.65;16.60;;;4.70;99.90;;;4.59;79.40;99669.03;5059995;28;20082;-85
2023/12/08 08:55:23;;;;;;;28.25;16.67;;;4.60;99.90;;;4.50;79.63;99665.72;5068996;28;20479;-85
2023/12/08 08:57:52;;;;;;;27.80;16.25;;;4.60;99.90;;;4.46;79.71;99675.00;5078873;28;20501;-85
2023/12/08 09:00:21;;;;;;;25.10;14.65;;;4.60;99.90;;;4.49;79.98;99676.44;5069050;28;20041;-85
2023/12/08 09:02:51;;;;;;;25.63;14.93;;;4.60;99.90;;;4.60;80.01;99678.59;5060197;28;20120;-85
2023/12/08 09:05:19;;;;;;;23.48;14.40;;;4.70;99.90;;;4.70;79.82;99680.88;5058759;28;20049;-85
2023/12/08 09:07:47;;;;;;;24.80;14.55;;;4.70;99.90;;;4.77;79.46;99685.19;5024642;28;20055;-85
2023/12/08 09:10:15;;;;;;;26.23;15.88;;;4.80;99.90;;;4.72;79.39;99692.06;5042661;28;20087;-85
2023/12/08 09:12:42;;;;;;;26.85;15.60;;;4.80;99.90;;;4.72;79.53;99686.78;5061871;28;20041;-85
2023/12/08 09:15:13;;;;;;;26.35;15.13;;;4.80;99.90;;;4.78;79.69;99691.28;5061993;28;20076;-85
2023/12/08 09:17:41;;;;;;;25.23;15.30;;;4.80;99.90;;;4.83;79.75;99694.16;5061060;28;20076;-85
2023/12/08 09:20:14;;;;;;;27.92;15.43;;;4.90;99.90;;;4.87;79.87;99695.41;5077174;28;20098;-85
2023/12/08 09:22:42;;;;;;;32.88;16.50;;;4.90;99.90;;;4.80;79.63;99697.22;5078315;28;20487;-85
2023/12/08 09:25:10;;;;;;;24.88;15.85;;;4.80;99.90;;;4.78;80.04;99694.78;5028147;28;20053;-85
2023/12/08 09:27:39;;;;;;;28.17;16.83;;;4.80;99.90;;;4.75;80.37;99691.69;5077421;28;20051;-85
2023/12/08 09:30:11;;;;;;;28.25;16.27;;;4.80;99.90;;;4.77;80.29;99693.13;5076228;28;20474;-85
2023/12/08 09:32:39;;;;;;;32.67;17.20;;;4.80;99.90;;;4.81;80.22;99689.09;5077796;28;20036;-85
2023/12/08 09:35:07;;;;;;;29.10;16.67;;;4.90;99.90;;;4.78;81.15;99691.28;5060673;28;20150;-85
2023/12/08 09:37:35;;;;;;;29.48;16.45;;;4.90;99.90;;;4.83;80.90;99696.81;5044407;28;20483;-84
2023/12/08 09:40:04;;;;;;;32.97;17.58;;;4.90;99.90;;;4.88;81.19;99695.25;5077833;28;20036;-85
2023/12/08 09:42:36;;;;;;;31.98;16.35;;;4.90;99.90;;;4.89;81.04;99702.16;5078392;28;20449;-85
2023/12/08 09:45:06;;;;;;;31.30;16.52;;;4.90;99.90;;;4.86;81.57;99707.00;5061712;28;20072;-85
2023/12/08 09:47:36;;;;;;;31.67;16.38;;;4.90;99.90;;;4.83;81.69;99707.38;5076966;28;20049;-85
2023/12/08 09:50:06;;;;;;;28.52;16.00;;;4.90;99.90;;;4.80;81.96;99711.22;5078135;28;20048;-86
2023/12/08 09:52:37;;;;;;;28.50;16.70;;;4.90;99.90;;;4.79;82.02;99696.41;5065568;28;20100;-83
2023/12/08 09:55:06;;;;;;;28.92;16.15;;;4.90;99.90;;;4.88;82.08;99692.59;5081245;28;20044;-83
2023/12/08 09:57:35;;;;;;;28.08;16.38;;;4.90;99.90;;;4.84;82.43;99701.09;5080794;28;20087;-85
2023/12/08 10:00:11;;;;;;;31.40;16.92;;;4.90;99.90;;;4.82;82.77;99698.63;5049447;28;20048;-84
2023/12/08 10:02:41;;;;;;;33.20;17.80;;;4.90;99.90;;;4.82;82.50;99700.47;5032600;28;20438;-84
2023/12/08 10:05:12;;;;;;;29.13;16.30;;;4.90;99.90;;;4.88;82.64;99702.31;5083439;28;20053;-84
2023/12/08 10:07:43;;;;;;;30.13;16.65;;;5.00;99.90;;;4.95;82.45;99712.97;5084423;28;20049;-84
2023/12/08 10:10:11;;;;;;;;;;;5.00;99.90;;;5.00;82.32;99692.88;5083375;28;20045;-84
2023/12/08 10:12:40;;;;;;;28.50;15.55;;;5.00;99.90;;;5.07;81.90;99693.72;5049246;28;19927;-85
2023/12/08 10:15:11;;;;;;;30.83;17.08;;;5.10;99.90;;;5.03;82.31;99700.41;5082740;28;20048;-85
2023/12/08 10:17:51;;;;;;;30.33;16.25;;;5.10;99.90;;;4.95;82.81;99708.47;5082453;28;20048;-84
2023/12/08 10:20:21;;;;;;;29.52;16.83;;;5.00;99.90;;;4.95;83.39;99700.56;5080390;28;20040;-85
2023/12/08 10:22:50;;;;;;;27.80;16.15;;;5.00;99.90;;;5.05;83.01;99693.09;5078083;28;20045;-85
2023/12/08 10:25:21;;;;;;;26.15;14.82;;;5.10;99.90;;;5.14;82.45;99691.13;5077773;28;20215;-86
2023/12/08 10:27:50;;;;;;;;;;;5.10;99.90;;;5.20;82.34;99700.91;5077938;28;20041;-85